createdAt,value
2018-06-08T00:00:41.477Z,63.76
2018-06-08T00:01:41.525Z,62.71
2018-06-08T00:02:41.526Z,63.19
2018-06-08T00:03:41.567Z,63.19
2018-06-08T00:04:41.587Z,63.76
2018-06-08T00:05:41.627Z,63.19
2018-06-08T00:06:41.623Z,63.29
2018-06-08T00:07:41.645Z,63.38
2018-06-08T00:08:41.686Z,63.48
2018-06-08T00:09:41.441Z,63.48
2018-06-08T00:10:41.732Z,63.29
2018-06-08T00:11:41.735Z,63.29
2018-06-08T00:12:56.429Z,63.48
2018-06-08T00:13:41.788Z,63.29
2018-06-08T00:14:41.813Z,63.29
2018-06-08T00:15:41.848Z,63.48
2018-06-08T00:16:41.860Z,62.81
2018-06-08T00:17:41.636Z,63.19
2018-06-08T00:18:41.905Z,62.9
2018-06-08T00:19:41.948Z,63.67
2018-06-08T00:20:41.957Z,63.29
2018-06-08T00:21:41.721Z,63.48
2018-06-08T00:22:41.751Z,63.38
2018-06-08T00:23:41.780Z,63.73
2018-06-08T00:24:42.048Z,63.86
2018-06-08T00:25:42.092Z,64.02
2018-06-08T00:26:42.094Z,63.67
2018-06-08T00:27:42.139Z,64.34
2018-06-08T00:28:56.808Z,64.12
2018-06-08T00:29:42.171Z,64.69
2018-06-08T00:30:41.933Z,64.22
2018-06-08T00:31:42.214Z,64.98
2018-06-08T00:32:41.993Z,64.98
2018-06-08T00:33:42.265Z,65.17
2018-06-08T00:34:42.303Z,64.89
2018-06-08T00:35:42.311Z,64.69
2018-06-08T00:36:42.088Z,64.89
2018-06-08T00:37:42.360Z,64.31
2018-06-08T00:38:42.383Z,64.89
2018-06-08T00:39:42.422Z,64.89
2018-06-08T00:40:42.432Z,64.89
2018-06-08T00:41:42.468Z,64.69
2018-06-08T00:42:42.482Z,64.79
2018-06-08T00:43:42.254Z,64.98
2018-06-08T00:44:57.184Z,65.46
2018-06-08T00:45:42.548Z,65.52
2018-06-08T00:46:42.568Z,65.42
2018-06-08T00:47:42.612Z,65.36
2018-06-08T00:48:42.634Z,65.46
2018-06-08T00:49:42.641Z,65.65
2018-06-08T00:50:42.676Z,65.62
2018-06-08T00:51:42.704Z,65.23
2018-06-08T00:52:42.711Z,65.33
2018-06-08T00:53:42.753Z,65.33
2018-06-08T00:54:42.761Z,65.71
2018-06-08T00:55:42.786Z,66.09
2018-06-08T00:56:42.806Z,66.29
2018-06-08T00:57:42.849Z,66.19
2018-06-08T00:58:42.609Z,66.67
2018-06-08T00:59:57.538Z,66.58
2018-06-08T01:00:42.917Z,66.67
2018-06-08T01:01:42.926Z,66.86
2018-06-08T01:02:42.967Z,67.05
2018-06-08T01:03:42.975Z,66.86
2018-06-08T01:04:43.008Z,66.67
2018-06-08T01:05:43.036Z,66.77
2018-06-08T01:06:43.043Z,66.77
2018-06-08T01:07:42.822Z,67.34
2018-06-08T01:08:43.117Z,66.96
2018-06-08T01:09:43.119Z,67.34
2018-06-08T01:10:43.150Z,67.05
2018-06-08T01:11:43.160Z,66.86
2018-06-08T01:12:43.204Z,67.44
2018-06-08T01:13:43.207Z,67.54
2018-06-08T01:14:43.248Z,67.54
2018-06-08T01:15:43.268Z,67.34
2018-06-08T01:16:43.295Z,67.82
2018-06-08T01:17:43.298Z,68.11
2018-06-08T01:18:43.081Z,67.91
2018-06-08T01:19:43.350Z,68.11
2018-06-08T01:20:43.371Z,67.72
2018-06-08T01:21:43.395Z,68.01
2018-06-08T01:22:43.243Z,68.01
2018-06-08T01:23:43.441Z,67.82
2018-06-08T01:24:43.483Z,68.3
2018-06-08T01:25:43.502Z,67.63
2018-06-08T01:26:43.531Z,68.3
2018-06-08T01:27:43.536Z,68.78
2018-06-08T01:28:43.558Z,68.49
2018-06-08T01:29:43.596Z,68.46
2018-06-08T01:30:43.632Z,68.21
2018-06-08T01:31:58.302Z,68.94
2018-06-08T01:32:43.654Z,69.03
2018-06-08T01:34:43.698Z,69.03
2018-06-08T01:35:43.725Z,68.74
2018-06-08T01:36:43.764Z,68.65
2018-06-08T01:38:43.812Z,68.94
2018-06-08T01:40:43.858Z,69.51
2018-06-08T01:41:43.866Z,69.6
2018-06-08T01:42:43.888Z,69.7
2018-06-08T01:43:43.926Z,69.6
2018-06-08T01:44:43.955Z,69.13
2018-06-08T01:45:43.699Z,69.6
2018-06-08T01:46:44.003Z,70.28
2018-06-08T01:47:58.665Z,70.18
2018-06-08T01:48:44.048Z,70.18
2018-06-08T01:49:44.067Z,70.28
2018-06-08T01:50:44.080Z,70.18
2018-06-08T01:51:44.111Z,70.37
2018-06-08T01:52:44.121Z,70.28
2018-06-08T01:53:44.162Z,70.56
2018-06-08T01:55:44.209Z,70.56
2018-06-08T01:56:44.231Z,70.72
2018-06-08T01:57:44.242Z,71.14
2018-06-08T01:58:44.278Z,71.48
2018-06-08T01:59:44.284Z,71.2
2018-06-08T02:00:44.325Z,70.81
2018-06-08T02:01:44.330Z,71.3
2018-06-08T02:02:44.378Z,71.48
2018-06-08T02:03:59.043Z,71.68
2018-06-08T02:04:44.419Z,71.01
2018-06-08T02:05:44.425Z,71.2
2018-06-08T02:06:44.446Z,71.87
2018-06-08T02:07:44.503Z,71.68
2018-06-08T02:08:44.516Z,71.68
2018-06-08T02:09:44.535Z,71.48
2018-06-08T02:10:44.541Z,71.77
2018-06-08T02:11:44.314Z,71.97
2018-06-08T02:12:44.606Z,71.87
2018-06-08T02:13:44.610Z,72.44
2018-06-08T02:15:44.398Z,71.77
2018-06-08T02:16:44.689Z,71.68
2018-06-08T02:17:44.721Z,71.68
2018-06-08T02:18:44.730Z,71.97
2018-06-08T02:19:59.415Z,71.3
2018-06-08T02:20:44.773Z,71.2
2018-06-08T02:21:44.814Z,71.11
2018-06-08T02:22:44.819Z,71.2
2018-06-08T02:23:44.842Z,70.81
2018-06-08T02:24:44.621Z,71.3
2018-06-08T02:25:44.893Z,70.91
2018-06-08T02:26:44.933Z,71.3
2018-06-08T02:27:44.937Z,71.2
2018-06-08T02:28:44.985Z,70.81
2018-06-08T02:29:44.980Z,71.11
2018-06-08T02:30:45.021Z,71.2
2018-06-08T02:31:45.031Z,70.81
2018-06-08T02:32:45.089Z,70.91
2018-06-08T02:33:45.093Z,71.77
2018-06-08T02:34:59.759Z,71.2
2018-06-08T02:35:45.138Z,71.3
2018-06-08T02:36:44.886Z,71.11
2018-06-08T02:37:45.163Z,70.91
2018-06-08T02:38:45.204Z,71.11
2018-06-08T02:39:45.235Z,71.3
2018-06-08T02:42:45.046Z,71.97
2018-06-08T02:43:45.323Z,71.3
2018-06-08T02:44:45.349Z,70.81
2018-06-08T02:45:45.103Z,71.01
2018-06-08T02:46:45.374Z,71.39
2018-06-08T02:47:45.398Z,70.62
2018-06-08T02:48:45.472Z,71.11
2018-06-08T02:49:45.453Z,71.3
2018-06-08T02:50:45.223Z,71.2
2018-06-08T02:51:45.236Z,71.11
2018-06-08T02:52:45.531Z,71.01
2018-06-08T02:53:45.542Z,71.01
2018-06-08T02:54:45.582Z,71.11
2018-06-08T02:55:45.582Z,71.01
2018-06-08T02:56:45.361Z,71.01
2018-06-08T02:57:45.651Z,72.06
2018-06-08T02:58:45.656Z,72.06
2018-06-08T02:59:45.674Z,71.97
2018-06-08T03:01:45.750Z,72.06
2018-06-08T03:02:45.488Z,72.34
2018-06-08T03:03:45.788Z,72.83
2018-06-08T03:04:45.809Z,72.63
2018-06-08T03:05:45.829Z,72.83
2018-06-08T03:07:00.502Z,72.83
2018-06-08T03:07:45.861Z,72.63
2018-06-08T03:08:45.899Z,73.11
2018-06-08T03:09:45.926Z,73.02
2018-06-08T03:10:45.934Z,72.83
2018-06-08T03:11:45.955Z,73.11
2018-06-08T03:12:45.993Z,72.34
2018-06-08T03:13:45.996Z,72.25
2018-06-08T03:16:46.068Z,72.83
2018-06-08T03:17:45.840Z,72.63
2018-06-08T03:18:46.112Z,73.11
2018-06-08T03:19:46.156Z,72.92
2018-06-08T03:20:45.903Z,73.4
2018-06-08T03:21:46.199Z,73.4
2018-06-08T03:23:00.870Z,73.4
2018-06-08T03:23:46.230Z,73.11
2018-06-08T03:24:46.269Z,73.59
2018-06-08T03:25:46.271Z,72.92
2018-06-08T03:26:46.303Z,72.34
2018-06-08T03:27:46.325Z,73.11
2018-06-08T03:28:46.359Z,72.83
2018-06-08T03:29:46.383Z,72.73
2018-06-08T03:30:46.394Z,72.63
2018-06-08T03:32:46.434Z,72.83
2018-06-08T03:33:46.214Z,72.06
2018-06-08T03:34:46.492Z,72.06
2018-06-08T03:35:46.517Z,72.16
2018-06-08T03:36:46.545Z,72.06
2018-06-08T03:38:01.211Z,71.91
2018-06-08T03:39:01.249Z,72
2018-06-08T03:40:46.620Z,71.33
2018-06-08T03:41:46.660Z,72.29
2018-06-08T03:42:46.664Z,71.23
2018-06-08T03:43:46.696Z,71.33
2018-06-08T03:44:46.743Z,71.14
2018-06-08T03:45:46.738Z,71.33
2018-06-08T03:46:46.775Z,71.14
2018-06-08T03:47:46.784Z,70.76
2018-06-08T03:50:46.853Z,70.09
2018-06-08T03:52:46.639Z,70.37
2018-06-08T03:53:46.938Z,69.6
2018-06-08T03:55:01.664Z,69.54
2018-06-08T03:55:46.972Z,69.74
2018-06-08T03:56:46.992Z,69.74
2018-06-08T03:57:47.014Z,70.12
2018-06-08T03:58:47.054Z,70.12
2018-06-08T03:59:46.807Z,69.35
2018-06-08T04:00:47.102Z,70.21
2018-06-08T04:01:46.847Z,69.93
2018-06-08T04:02:47.148Z,70.41
2018-06-08T04:03:47.162Z,70.12
2018-06-08T04:04:47.173Z,69.83
2018-06-08T04:06:47.222Z,69.45
2018-06-08T04:07:47.246Z,69.45
2018-06-08T04:08:47.290Z,69.77
2018-06-08T04:10:01.955Z,68.43
2018-06-08T04:10:47.335Z,67.5
2018-06-08T04:11:47.359Z,64.95
2018-06-08T04:12:47.119Z,62.04
2018-06-08T04:13:47.396Z,59.15
2018-06-08T04:14:47.418Z,56.03
2018-06-08T04:15:47.455Z,54.32
2018-06-08T04:16:47.462Z,52.06
2018-06-08T04:17:47.504Z,50.74
2018-06-08T04:18:47.524Z,50.28
2018-06-08T04:19:47.555Z,48.21
2018-06-08T04:21:47.588Z,45.86
2018-06-08T04:22:47.634Z,44.5
2018-06-08T04:23:47.647Z,43.95
2018-06-08T04:24:47.689Z,43.29
2018-06-08T04:25:47.805Z,43.31
2018-06-08T04:26:47.738Z,42.13
2018-06-08T04:27:47.747Z,41.56
2018-06-08T04:28:47.793Z,41.58
2018-06-08T04:29:47.804Z,41
2018-06-08T04:30:47.851Z,40.54
2018-06-08T04:31:47.860Z,39.47
2018-06-08T04:32:48.008Z,38.44
2018-06-08T04:33:47.934Z,38.15
2018-06-08T04:34:47.973Z,37.3
2018-06-08T04:36:48.022Z,37.39
2018-06-08T04:37:48.031Z,38.19
2018-06-08T04:38:47.808Z,36.71
2018-06-08T04:39:47.842Z,36.46
2018-06-08T04:40:48.137Z,35.5
2018-06-08T04:42:02.818Z,36.08
2018-06-08T04:42:48.183Z,36.1
2018-06-08T04:43:48.227Z,35.33
2018-06-08T04:44:48.258Z,34.95
2018-06-08T04:45:48.275Z,34.09
2018-06-08T04:46:48.325Z,33.7
2018-06-08T04:47:48.335Z,33.62
2018-06-08T04:48:48.376Z,32.58
2018-06-08T04:49:48.411Z,32.39
2018-06-08T04:50:48.448Z,31.92
2018-06-08T04:51:48.653Z,31.84
2018-06-08T04:52:48.491Z,31.82
2018-06-08T04:54:48.299Z,30.48
2018-06-08T04:55:48.587Z,30.68
2018-06-08T04:56:48.638Z,30.69
2018-06-08T04:58:03.318Z,30.69
2018-06-08T04:58:48.702Z,30.41
2018-06-08T04:59:48.741Z,29.35
2018-06-08T05:00:48.752Z,29.55
2018-06-08T05:01:48.806Z,30.04
2018-06-08T05:02:48.832Z,29.84
2018-06-08T05:03:48.870Z,29.25
2018-06-08T05:05:48.927Z,28.61
2018-06-08T05:06:48.971Z,29.1
2018-06-08T05:07:48.990Z,28.3
2018-06-08T05:09:49.268Z,27.55
2018-06-08T05:10:49.120Z,27.15
2018-06-08T05:11:49.133Z,28.03
2018-06-08T05:12:49.158Z,27.28
2018-06-08T05:14:03.861Z,27.85
2018-06-08T05:14:49.333Z,27.85
2018-06-08T05:16:49.297Z,26.89
2018-06-08T05:17:49.349Z,27.67
2018-06-08T05:18:49.368Z,27.46
2018-06-08T05:19:49.401Z,27.28
2018-06-08T05:20:49.449Z,26.79
2018-06-08T05:21:49.474Z,26.98
2018-06-08T05:22:49.525Z,27.28
2018-06-08T05:23:49.539Z,26.61
2018-06-08T05:24:49.594Z,26.29
2018-06-08T05:25:49.618Z,26.79
2018-06-08T05:26:49.650Z,26.59
2018-06-08T05:27:49.702Z,26.48
2018-06-08T05:28:49.462Z,27.18
2018-06-08T05:30:04.420Z,27.07
2018-06-08T05:30:49.821Z,26.29
2018-06-08T05:31:49.610Z,25.44
2018-06-08T05:32:49.882Z,25.35
2018-06-08T05:33:49.896Z,24.38
2018-06-08T05:34:49.952Z,24.29
2018-06-08T05:35:49.711Z,24.77
2018-06-08T05:36:50.009Z,25.74
2018-06-08T05:37:50.058Z,25.55
2018-06-08T05:38:49.834Z,25.26
2018-06-08T05:39:50.131Z,23.71
2018-06-08T05:40:50.153Z,24.12
2018-06-08T05:42:50.223Z,24.77
2018-06-08T05:43:50.270Z,25.27
2018-06-08T05:45:04.966Z,24.08
2018-06-08T05:45:50.341Z,24.01
2018-06-08T05:46:50.391Z,23.8
2018-06-08T05:47:50.407Z,23.82
2018-06-08T05:48:50.461Z,23.43
2018-06-08T05:49:50.486Z,23.64
2018-06-08T05:50:50.521Z,23.91
2018-06-08T05:51:50.556Z,24.19
2018-06-08T05:52:50.608Z,24.29
2018-06-08T05:53:50.782Z,23.82
2018-06-08T05:54:50.682Z,23.93
2018-06-08T05:55:50.445Z,23.06
2018-06-08T05:56:50.771Z,23.27
2018-06-08T05:57:50.790Z,22.3
2018-06-08T05:58:50.570Z,23.48
2018-06-08T05:59:50.857Z,22.19
2018-06-08T06:00:50.891Z,22.67
2018-06-08T06:01:50.938Z,22.19
2018-06-08T06:02:50.982Z,22.88
2018-06-08T06:03:51.025Z,23.17
2018-06-08T06:04:51.038Z,22.59
2018-06-08T06:05:51.096Z,21.71
2018-06-08T06:06:50.859Z,22.31
2018-06-08T06:07:51.172Z,21.22
2018-06-08T06:08:51.191Z,21.24
2018-06-08T06:09:51.249Z,21.72
2018-06-08T06:10:51.289Z,21.32
2018-06-08T06:11:51.306Z,21.42
2018-06-08T06:12:51.359Z,21.61
2018-06-08T06:13:51.386Z,22.02
2018-06-08T06:14:51.246Z,22.5
2018-06-08T06:15:51.459Z,22.59
2018-06-08T06:17:06.168Z,22.41
2018-06-08T06:17:51.577Z,22.89
2018-06-08T06:18:51.608Z,22.6
2018-06-08T06:19:51.655Z,22.89
2018-06-08T06:20:51.704Z,21.53
2018-06-08T06:21:51.696Z,22.12
2018-06-08T06:23:51.510Z,22.69
2018-06-08T06:24:51.553Z,22.99
2018-06-08T06:26:51.639Z,23.86
2018-06-08T06:27:51.940Z,23.36
2018-06-08T06:28:51.958Z,22.97
2018-06-08T06:30:51.788Z,22.78
2018-06-08T06:31:52.085Z,23.38
2018-06-08T06:33:06.781Z,23.36
2018-06-08T06:33:52.173Z,23.07
2018-06-08T06:34:52.199Z,23.58
2018-06-08T06:35:52.256Z,23.17
2018-06-08T06:36:52.285Z,22.78
2018-06-08T06:37:52.332Z,23.76
2018-06-08T06:38:52.369Z,23.94
2018-06-08T06:39:52.409Z,24.04
2018-06-08T06:40:52.433Z,23.44
2018-06-08T06:41:52.210Z,22.58
2018-06-08T06:42:52.520Z,22.99
2018-06-08T06:44:52.651Z,22.5
2018-06-08T06:45:52.626Z,23
2018-06-08T06:46:52.680Z,22.39
2018-06-08T06:47:52.703Z,22.5
2018-06-08T06:49:07.411Z,22.7
2018-06-08T06:49:52.529Z,22.71
2018-06-08T06:50:52.818Z,22.33
2018-06-08T06:51:52.915Z,23.11
2018-06-08T06:52:52.922Z,22.8
2018-06-08T06:53:52.938Z,23.18
2018-06-08T06:54:52.995Z,22.01
2018-06-08T06:55:53.032Z,21.93
2018-06-08T06:56:53.063Z,21.45
2018-06-08T06:57:52.839Z,20.97
2018-06-08T06:58:53.236Z,21.26
2018-06-08T06:59:53.192Z,21.74
2018-06-08T07:00:52.966Z,21.66
2018-06-08T07:01:53.273Z,21.06
2018-06-08T07:02:53.306Z,21.06
2018-06-08T07:03:53.356Z,21
2018-06-08T07:05:08.038Z,20.89
2018-06-08T07:05:53.417Z,21.16
2018-06-08T07:06:53.478Z,21.46
2018-06-08T07:07:53.492Z,21.56
2018-06-08T07:08:53.548Z,20.78
2018-06-08T07:09:53.571Z,20.6
2018-06-08T07:10:53.627Z,20.48
2018-06-08T07:11:53.661Z,20.97
2018-06-08T07:12:53.790Z,21.27
2018-06-08T07:13:53.748Z,21.66
2018-06-08T07:14:53.774Z,21.26
2018-06-08T07:15:53.809Z,20.3
2018-06-08T07:16:53.605Z,20.7
2018-06-08T07:17:53.890Z,20.68
2018-06-08T07:18:53.685Z,20.22
2018-06-08T07:20:08.636Z,20.11
2018-06-08T07:20:53.759Z,19.93
2018-06-08T07:22:54.102Z,19.54
2018-06-08T07:23:54.146Z,20.53
2018-06-08T07:24:54.269Z,20.13
2018-06-08T07:25:54.226Z,20.52
2018-06-08T07:26:54.005Z,20.5
2018-06-08T07:27:54.286Z,20.79
2018-06-08T07:28:54.351Z,19.73
2018-06-08T07:29:54.369Z,20.41
2018-06-08T07:31:54.231Z,19.65
2018-06-08T07:33:54.547Z,20.14
2018-06-08T07:34:54.567Z,20.63
2018-06-08T07:35:54.634Z,20.32
2018-06-08T07:36:54.649Z,20.24
2018-06-08T07:37:54.691Z,20.33
2018-06-08T07:38:54.479Z,20.53
2018-06-08T07:39:54.845Z,20.7
2018-06-08T07:40:54.826Z,20.7
2018-06-08T07:41:54.845Z,20.61
2018-06-08T07:43:54.925Z,21.17
2018-06-08T07:44:54.991Z,21.07
2018-06-08T07:46:55.063Z,20.2
2018-06-08T07:47:54.837Z,20.81
2018-06-08T07:48:54.887Z,20.98
2018-06-08T07:49:55.168Z,21.28
2018-06-08T07:50:55.223Z,20.2
2018-06-08T07:52:09.916Z,20.81
2018-06-08T07:52:55.289Z,20.42
2018-06-08T07:54:55.364Z,20.42
2018-06-08T07:55:55.472Z,19.92
2018-06-08T07:56:55.444Z,19.62
2018-06-08T07:57:55.502Z,19.04
2018-06-08T07:59:55.567Z,19.82
2018-06-08T08:00:55.629Z,19.13
2018-06-08T08:02:55.690Z,20.22
2018-06-08T08:04:55.767Z,19.71
2018-06-08T08:05:55.555Z,20.12
2018-06-08T08:06:55.842Z,19.22
2018-06-08T08:08:10.554Z,20.11
2018-06-08T08:08:55.662Z,19.13
2018-06-08T08:09:55.701Z,19.92
2018-06-08T08:10:56.015Z,19.6
2018-06-08T08:11:55.791Z,19.98
2018-06-08T08:12:55.916Z,19.59
2018-06-08T08:13:56.139Z,19.89
2018-06-08T08:14:56.168Z,19.2
2018-06-08T08:15:56.215Z,18.73
2018-06-08T08:16:56.247Z,18.14
2018-06-08T08:17:56.290Z,17.73
2018-06-08T08:18:56.312Z,18.71
2018-06-08T08:20:56.411Z,19.38
2018-06-08T08:21:56.443Z,19.09
2018-06-08T08:22:56.486Z,17.91
2018-06-08T08:24:11.168Z,18.1
2018-06-08T08:24:56.563Z,17.72
2018-06-08T08:25:56.584Z,17.82
2018-06-08T08:26:56.641Z,18.4
2018-06-08T08:27:56.664Z,18.79
2018-06-08T08:28:56.711Z,19.48
2018-06-08T08:29:56.737Z,18.99
2018-06-08T08:30:56.794Z,17.63
2018-06-08T08:32:56.617Z,18.01
2018-06-08T08:33:56.907Z,18.12
2018-06-08T08:34:56.946Z,17.82
2018-06-08T08:35:56.709Z,17.61
2018-06-08T08:36:57.059Z,17.82
2018-06-08T08:37:57.079Z,17.91
2018-06-08T08:38:57.089Z,18.01
2018-06-08T08:40:11.785Z,18.01
2018-06-08T08:40:57.178Z,18.2
2018-06-08T08:41:57.201Z,18.69
2018-06-08T08:42:56.989Z,18.01
2018-06-08T08:43:57.289Z,16.64
2018-06-08T08:44:57.314Z,18.12
2018-06-08T08:45:57.348Z,17.8
2018-06-08T08:46:57.386Z,17.02
2018-06-08T08:47:57.454Z,17.04
2018-06-08T08:49:57.568Z,16.83
2018-06-08T08:50:57.555Z,17.63
2018-06-08T08:51:57.669Z,17.82
2018-06-08T08:52:57.615Z,17.33
2018-06-08T08:53:57.657Z,17.12
2018-06-08T08:55:12.360Z,16.43
2018-06-08T08:55:57.733Z,17.22
2018-06-08T08:56:57.901Z,17.23
2018-06-08T08:57:57.802Z,17.82
2018-06-08T08:58:57.860Z,18.12
2018-06-08T08:59:57.885Z,18.01
2018-06-08T09:00:57.675Z,17.72
2018-06-08T09:01:57.954Z,18.01
2018-06-08T09:02:58.011Z,17.82
2018-06-08T09:03:58.048Z,18.52
2018-06-08T09:04:58.067Z,18.08
2018-06-08T09:05:58.120Z,18.78
2018-06-08T09:06:58.163Z,18.97
2018-06-08T09:07:58.195Z,19.15
2018-06-08T09:08:57.972Z,19.55
2018-06-08T09:09:58.252Z,20.62
2018-06-08T09:10:58.308Z,19.64
2018-06-08T09:11:58.325Z,19.55
2018-06-08T09:12:58.381Z,19.24
2018-06-08T09:13:58.418Z,19.65
2018-06-08T09:14:58.457Z,20.23
2018-06-08T09:15:58.475Z,19.15
2018-06-08T09:16:58.511Z,19.74
2018-06-08T09:17:58.562Z,19.54
2018-06-08T09:18:58.604Z,20.03
2018-06-08T09:19:58.642Z,20.03
2018-06-08T09:20:58.660Z,19.54
2018-06-08T09:23:58.773Z,19.46
2018-06-08T09:24:58.855Z,19.54
2018-06-08T09:25:58.856Z,19.65
2018-06-08T09:27:13.544Z,19.24
2018-06-08T09:27:58.917Z,19.17
2018-06-08T09:28:58.969Z,19.27
2018-06-08T09:29:58.987Z,19.85
2018-06-08T09:30:59.044Z,20.24
2018-06-08T09:31:59.055Z,20.23
2018-06-08T09:32:59.122Z,19.15
2018-06-08T09:33:58.872Z,19.07
2018-06-08T09:34:59.176Z,19.55
2018-06-08T09:35:59.222Z,20.14
2018-06-08T09:36:59.253Z,20.12
2018-06-08T09:37:59.272Z,19.65
2018-06-08T09:39:59.399Z,18.78
2018-06-08T09:40:59.390Z,18.99
2018-06-08T09:41:59.428Z,18.87
2018-06-08T09:43:14.121Z,18.38
2018-06-08T09:43:59.506Z,19.27
2018-06-08T09:44:59.523Z,19.26
2018-06-08T09:45:59.334Z,19.17
2018-06-08T09:46:59.593Z,19.28
2018-06-08T09:47:59.634Z,19.1
2018-06-08T09:48:59.680Z,18.82
2018-06-08T09:49:59.719Z,18.52
2018-06-08T09:50:59.759Z,18.32
2018-06-08T09:51:59.514Z,18.8
2018-06-08T09:52:59.831Z,18.02
2018-06-08T09:53:59.845Z,18.01
2018-06-08T09:54:59.907Z,18.6
2018-06-08T09:55:59.924Z,18.49
2018-06-08T09:56:59.970Z,18.01
2018-06-08T09:58:00.000Z,17.91
2018-06-08T09:59:14.691Z,18.6
2018-06-08T10:00:00.065Z,18.41
2018-06-08T10:01:00.121Z,17.93
2018-06-08T10:03:00.182Z,18.87
2018-06-08T10:03:59.945Z,19.26
2018-06-08T10:04:59.979Z,19.18
2018-06-08T10:06:00.287Z,18.9
2018-06-08T10:07:00.330Z,18.61
2018-06-08T10:08:00.359Z,18.59
2018-06-08T10:09:00.385Z,19.09
2018-06-08T10:10:00.437Z,18.68
2018-06-08T10:11:00.448Z,18.08
2018-06-08T10:12:00.502Z,17.8
2018-06-08T10:13:00.522Z,17.8
2018-06-08T10:14:00.308Z,18.01
2018-06-08T10:15:15.258Z,18.69
2018-06-08T10:16:00.629Z,18.49
2018-06-08T10:17:00.673Z,17.39
2018-06-08T10:18:00.695Z,18.67
2018-06-08T10:19:00.747Z,18.46
2018-06-08T10:20:00.766Z,18.67
2018-06-08T10:21:00.553Z,18.87
2018-06-08T10:22:00.860Z,17.99
2018-06-08T10:23:00.993Z,17.98
2018-06-08T10:24:00.903Z,17.98
2018-06-08T10:25:00.947Z,17.58
2018-06-08T10:26:00.974Z,17.76
2018-06-08T10:27:01.030Z,18.35
2018-06-08T10:28:01.047Z,18.46
2018-06-08T10:29:01.093Z,18.35
2018-06-08T10:30:15.782Z,18.94
2018-06-08T10:31:01.168Z,19.49
2018-06-08T10:32:01.185Z,19.79
2018-06-08T10:33:01.241Z,19.4
2018-06-08T10:34:01.333Z,19.4
2018-06-08T10:35:01.033Z,19.96
2018-06-08T10:36:01.325Z,20.14
2018-06-08T10:37:01.373Z,20.14
2018-06-08T10:38:01.412Z,19.76
2018-06-08T10:40:01.545Z,20.45
2018-06-08T10:41:01.235Z,19.96
2018-06-08T10:43:01.562Z,20.34
2018-06-08T10:44:01.619Z,20.03
2018-06-08T10:45:01.657Z,19.83
2018-06-08T10:46:01.667Z,21.09
2018-06-08T10:47:01.720Z,21.09
2018-06-08T10:48:01.736Z,21.59
2018-06-08T10:49:01.804Z,21.19
2018-06-08T10:52:01.939Z,22.16
2018-06-08T10:54:01.951Z,22.16
2018-06-08T10:55:01.989Z,22.55
2018-06-08T10:56:02.035Z,23.11
2018-06-08T10:57:02.057Z,24.09
2018-06-08T10:58:02.077Z,23.8
2018-06-08T10:59:02.113Z,23.31
2018-06-08T11:00:01.878Z,23.21
2018-06-08T11:01:02.193Z,21.45
2018-06-08T11:02:16.872Z,21.66
2018-06-08T11:03:02.246Z,22.16
2018-06-08T11:04:02.298Z,21.76
2018-06-08T11:05:02.306Z,21.47
2018-06-08T11:06:02.358Z,22.64
2018-06-08T11:07:02.369Z,22.64
2018-06-08T11:09:02.456Z,22.06
2018-06-08T11:10:02.478Z,21.95
2018-06-08T11:11:02.503Z,22.06
2018-06-08T11:13:02.586Z,20.89
2018-06-08T11:14:02.603Z,20.99
2018-06-08T11:15:02.661Z,21
2018-06-08T11:16:02.669Z,20.9
2018-06-08T11:17:02.719Z,20.99
2018-06-08T11:18:17.395Z,21.37
2018-06-08T11:19:02.772Z,21.27
2018-06-08T11:20:02.816Z,21.47
2018-06-08T11:21:02.833Z,21.37
2018-06-08T11:22:02.606Z,21.95
2018-06-08T11:23:02.916Z,22.44
2018-06-08T11:24:02.929Z,21.85
2018-06-08T11:25:02.990Z,21.66
2018-06-08T11:26:03.015Z,21.95
2018-06-08T11:27:03.269Z,21.36
2018-06-08T11:28:03.082Z,21.26
2018-06-08T11:29:02.836Z,21.55
2018-06-08T11:30:03.138Z,21.15
2018-06-08T11:31:03.173Z,21.35
2018-06-08T11:32:02.948Z,21.35
2018-06-08T11:33:03.220Z,22.13
2018-06-08T11:34:17.922Z,21.55
2018-06-08T11:35:03.284Z,22.23
2018-06-08T11:36:03.327Z,22.62
2018-06-08T11:37:03.368Z,22.13
2018-06-08T11:38:03.413Z,21.84
2018-06-08T11:39:03.432Z,21.66
2018-06-08T11:40:03.450Z,21.45
2018-06-08T11:41:03.495Z,21.95
2018-06-08T11:42:03.252Z,22.13
2018-06-08T11:43:03.298Z,22.33
2018-06-08T11:45:03.360Z,21.55
2018-06-08T11:46:03.393Z,21.84
2018-06-08T11:47:03.416Z,21.45
2018-06-08T11:48:03.707Z,21.45
2018-06-08T11:49:03.751Z,21.83
2018-06-08T11:50:18.430Z,21.34
2018-06-08T11:51:03.823Z,21.35
2018-06-08T11:52:03.831Z,22.21
2018-06-08T11:53:03.871Z,22.6
2018-06-08T11:54:03.894Z,21.81
2018-06-08T11:55:03.947Z,22.12
2018-06-08T11:57:03.991Z,22.72
2018-06-08T11:58:03.772Z,22.42
2018-06-08T11:59:03.794Z,22.42
2018-06-08T12:00:04.103Z,22.62
2018-06-08T12:01:03.858Z,22.63
2018-06-08T12:02:04.171Z,22.64
2018-06-08T12:03:03.927Z,21.28
2018-06-08T12:04:03.953Z,22.66
2018-06-08T12:05:18.912Z,22.06
2018-06-08T12:06:04.295Z,21.87
2018-06-08T12:07:04.308Z,22.35
2018-06-08T12:08:04.094Z,22.55
2018-06-08T12:09:04.121Z,23.12
2018-06-08T12:10:04.264Z,23.52
2018-06-08T12:11:04.440Z,23.22
2018-06-08T12:12:04.222Z,22.63
2018-06-08T12:13:04.249Z,22.53
2018-06-08T12:14:04.287Z,22.83
2018-06-08T12:15:04.563Z,22.64
2018-06-08T12:16:04.345Z,22.92
2018-06-08T12:17:04.384Z,22.83
2018-06-08T12:19:04.430Z,23.81
2018-06-08T12:20:04.739Z,24.1
2018-06-08T12:21:04.496Z,24.3
2018-06-08T12:22:04.804Z,24.1
2018-06-08T12:23:04.815Z,23.91
2018-06-08T12:24:04.647Z,24.49
2018-06-08T12:25:04.929Z,24.09
2018-06-08T12:26:04.924Z,24.09
2018-06-08T12:27:04.687Z,24.09
2018-06-08T12:28:04.731Z,24.38
2018-06-08T12:29:05.039Z,24.19
2018-06-08T12:30:05.053Z,23.8
2018-06-08T12:31:05.109Z,24.08
2018-06-08T12:32:05.115Z,24.16
2018-06-08T12:33:05.150Z,24.85
2018-06-08T12:34:04.915Z,24.55
2018-06-08T12:35:04.951Z,24.76
2018-06-08T12:36:05.307Z,23.98
2018-06-08T12:37:19.926Z,24.57
2018-06-08T12:38:05.295Z,25.15
2018-06-08T12:39:05.322Z,24.85
2018-06-08T12:40:05.373Z,25.35
2018-06-08T12:41:05.397Z,24.97
2018-06-08T12:42:05.431Z,24.38
2018-06-08T12:43:05.206Z,25.27
2018-06-08T12:44:05.480Z,24.77
2018-06-08T12:46:05.566Z,23.9
2018-06-08T12:47:05.576Z,23.8
2018-06-08T12:48:05.622Z,24.38
2018-06-08T12:49:05.731Z,24.29
2018-06-08T12:50:05.423Z,23.9
2018-06-08T12:51:05.440Z,24.57
2018-06-08T12:52:05.747Z,24.86
2018-06-08T12:53:20.429Z,24.37
2018-06-08T12:54:05.798Z,23.88
2018-06-08T12:55:05.568Z,24.29
2018-06-08T12:56:05.855Z,23.9
2018-06-08T12:57:05.905Z,23.31
2018-06-08T12:58:05.660Z,23.41
2018-06-08T12:59:05.970Z,23.41
2018-06-08T13:00:05.732Z,23.8
2018-06-08T13:01:06.030Z,22.91
2018-06-08T13:02:06.048Z,23.41
2018-06-08T13:03:06.097Z,23.5
2018-06-08T13:04:06.119Z,23.99
2018-06-08T13:05:06.155Z,24.29
2018-06-08T13:06:06.188Z,24.19
2018-06-08T13:07:06.207Z,24.38
2018-06-08T13:08:06.243Z,24.29
2018-06-08T13:09:20.929Z,24.97
2018-06-08T13:10:06.295Z,24.29
2018-06-08T13:11:06.343Z,25.27
2018-06-08T13:12:06.099Z,24.96
2018-06-08T13:13:06.386Z,25.24
2018-06-08T13:14:06.169Z,24.85
2018-06-08T13:15:06.472Z,24.46
2018-06-08T13:16:06.236Z,24.26
2018-06-08T13:17:06.739Z,24.07
2018-06-08T13:18:06.301Z,23.79
2018-06-08T13:21:06.657Z,24.85
2018-06-08T13:22:06.676Z,24.55
2018-06-08T13:23:06.718Z,24.95
2018-06-08T13:24:06.733Z,25.05
2018-06-08T13:25:21.428Z,25.24
2018-06-08T13:26:06.799Z,25.35
2018-06-08T13:27:06.824Z,25.16
2018-06-08T13:28:06.880Z,24.96
2018-06-08T13:29:06.910Z,24.86
2018-06-08T13:30:06.676Z,25.26
2018-06-08T13:32:06.997Z,25.45
2018-06-08T13:33:07.012Z,25.35
2018-06-08T13:34:07.048Z,25.74
2018-06-08T13:35:07.073Z,25.26
2018-06-08T13:37:06.877Z,25.15
2018-06-08T13:38:07.204Z,24.95
2018-06-08T13:39:06.946Z,24.65
2018-06-08T13:40:21.895Z,25.44
2018-06-08T13:41:07.260Z,24.66
2018-06-08T13:42:07.306Z,24.57
2018-06-08T13:43:07.321Z,25.05
2018-06-08T13:44:07.098Z,25.44
2018-06-08T13:45:07.387Z,25.63
2018-06-08T13:46:07.431Z,25.73
2018-06-08T13:47:07.201Z,25.43
2018-06-08T13:48:07.225Z,26.11
2018-06-08T13:50:07.554Z,26.21
2018-06-08T13:51:07.569Z,26.31
2018-06-08T13:52:07.623Z,25.92
2018-06-08T13:53:07.634Z,26.21
2018-06-08T13:54:07.665Z,26.12
2018-06-08T13:55:07.692Z,25.83